Saratoga, Texas
Current Conditions -  °F | °C
As of 1:55 AM on Tuesday 21 Oct 2014 (Local Time) from KBMT Reporting Station
Clear Clear  
Wind Chill: 56°   Ceiling: Unl
Heat Index: 56°   Visibility: 10mi
Dew Point: 55°   Wind: 0mph
Humidity: 98%   Direction: NA
Pressure: 30.02"   Gusts: NA
Location:  30.28°N, 94.53°W
Report Text: KBMT 210655Z AUTO 00000KT 10SM CLR 13/13 A3002 RMK AO2 T01330130
Loading
Personal Weather Stations






























Interactive Weather Map
Tropical Storm Tracking
New forecast layout! Learn more

10-Day Weather Forecast

Advertisements
Track Severe Weather on mobile